sensor_id;sensor_type;location;lat;lon;timestamp;P1;durP1;ratioP1;P2;durP2;ratioP2
16626;SDS011;8427;52.204;7.202;2024-01-15T00:01:32;15.45;;;4.22;;
16626;SDS011;8427;52.204;7.202;2024-01-15T00:04:00;17.02;;;4.28;;
16626;SDS011;8427;52.204;7.202;2024-01-15T00:06:29;13.07;;;4.60;;
16626;SDS011;8427;52.204;7.202;2024-01-15T00:09:01;11.93;;;4.70;;
16626;SDS011;8427;52.204;7.202;2024-01-15T00:11:29;15.10;;;4.43;;
16626;SDS011;8427;52.204;7.202;2024-01-15T00:13:57;10.45;;;3.75;;
16626;SDS011;8427;52.204;7.202;2024-01-15T00:16:26;12.80;;;4.28;;
16626;SDS011;8427;52.204;7.202;2024-01-15T00:18:54;13.25;;;4.05;;
16626;SDS011;8427;52.204;7.202;2024-01-15T00:21:22;10.65;;;3.90;;
16626;SDS011;8427;52.204;7.202;2024-01-15T00:23:51;9.40;;;3.53;;
16626;SDS011;8427;52.204;7.202;2024-01-15T00:26:20;10.00;;;2.97;;
16626;SDS011;8427;52.204;7.202;2024-01-15T00:28:49;7.60;;;2.90;;
16626;SDS011;8427;52.204;7.202;2024-01-15T00:31:17;8.68;;;2.75;;
16626;SDS011;8427;52.204;7.202;2024-01-15T00:33:46;14.20;;;2.77;;
16626;SDS011;8427;52.204;7.202;2024-01-15T00:36:14;8.65;;;2.70;;
16626;SDS011;8427;52.204;7.202;2024-01-15T00:38:43;5.65;;;2.22;;
16626;SDS011;8427;52.204;7.202;2024-01-15T00:41:14;6.60;;;2.15;;
16626;SDS011;8427;52.204;7.202;2024-01-15T00:43:44;6.50;;;2.00;;
16626;SDS011;8427;52.204;7.202;2024-01-15T00:46:12;7.10;;;1.90;;
16626;SDS011;8427;52.204;7.202;2024-01-15T00:48:40;6.65;;;1.70;;
16626;SDS011;8427;52.204;7.202;2024-01-15T00:51:08;9.70;;;1.98;;
16626;SDS011;8427;52.204;7.202;2024-01-15T00:53:37;10.68;;;1.98;;
16626;SDS011;8427;52.204;7.202;2024-01-15T00:56:05;7.00;;;1.67;;
16626;SDS011;8427;52.204;7.202;2024-01-15T00:58:33;6.07;;;1.77;;
16626;SDS011;8427;52.204;7.202;2024-01-15T01:01:03;6.47;;;1.75;;
16626;SDS011;8427;52.204;7.202;2024-01-15T01:03:32;6.93;;;1.40;;
16626;SDS011;8427;52.204;7.202;2024-01-15T01:06:00;8.30;;;1.60;;
16626;SDS011;8427;52.204;7.202;2024-01-15T01:08:29;5.05;;;1.60;;
16626;SDS011;8427;52.204;7.202;2024-01-15T01:10:57;9.00;;;1.50;;
16626;SDS011;8427;52.204;7.202;2024-01-15T01:13:25;6.88;;;1.58;;
16626;SDS011;8427;52.204;7.202;2024-01-15T01:15:54;8.30;;;1.60;;
16626;SDS011;8427;52.204;7.202;2024-01-15T01:18:23;6.55;;;1.58;;
16626;SDS011;8427;52.204;7.202;2024-01-15T01:20:52;8.23;;;1.70;;
16626;SDS011;8427;52.204;7.202;2024-01-15T01:23:20;9.25;;;1.50;;
16626;SDS011;8427;52.204;7.202;2024-01-15T01:25:49;4.60;;;1.70;;
16626;SDS011;8427;52.204;7.202;2024-01-15T01:28:17;7.75;;;1.30;;
16626;SDS011;8427;52.204;7.202;2024-01-15T01:30:45;7.70;;;1.70;;
16626;SDS011;8427;52.204;7.202;2024-01-15T01:33:14;8.20;;;1.67;;
16626;SDS011;8427;52.204;7.202;2024-01-15T01:35:44;5.00;;;1.58;;
16626;SDS011;8427;52.204;7.202;2024-01-15T01:38:13;9.85;;;1.90;;
16626;SDS011;8427;52.204;7.202;2024-01-15T01:40:42;6.03;;;1.63;;
16626;SDS011;8427;52.204;7.202;2024-01-15T01:43:10;7.88;;;1.70;;
16626;SDS011;8427;52.204;7.202;2024-01-15T01:45:38;9.07;;;2.13;;
16626;SDS011;8427;52.204;7.202;2024-01-15T01:48:07;10.98;;;2.00;;
16626;SDS011;8427;52.204;7.202;2024-01-15T01:50:35;5.07;;;1.88;;
16626;SDS011;8427;52.204;7.202;2024-01-15T01:53:05;7.75;;;2.00;;
16626;SDS011;8427;52.204;7.202;2024-01-15T01:55:34;13.25;;;1.88;;
16626;SDS011;8427;52.204;7.202;2024-01-15T01:58:03;8.35;;;1.80;;
16626;SDS011;8427;52.204;7.202;2024-01-15T02:00:32;4.50;;;1.60;;
16626;SDS011;8427;52.204;7.202;2024-01-15T02:03:03;9.18;;;2.00;;
16626;SDS011;8427;52.204;7.202;2024-01-15T02:05:31;11.00;;;1.70;;
16626;SDS011;8427;52.204;7.202;2024-01-15T02:10:30;10.55;;;2.00;;
16626;SDS011;8427;52.204;7.202;2024-01-15T02:12:59;8.98;;;1.73;;
16626;SDS011;8427;52.204;7.202;2024-01-15T02:15:27;12.25;;;1.70;;
16626;SDS011;8427;52.204;7.202;2024-01-15T02:17:56;6.73;;;1.67;;
16626;SDS011;8427;52.204;7.202;2024-01-15T02:20:25;7.07;;;1.58;;
16626;SDS011;8427;52.204;7.202;2024-01-15T02:22:54;11.45;;;1.65;;
16626;SDS011;8427;52.204;7.202;2024-01-15T02:25:29;7.38;;;1.63;;
16626;SDS011;8427;52.204;7.202;2024-01-15T02:27:57;13.38;;;1.60;;
16626;SDS011;8427;52.204;7.202;2024-01-15T02:30:26;9.23;;;1.63;;
16626;SDS011;8427;52.204;7.202;2024-01-15T02:32:56;9.88;;;1.55;;
16626;SDS011;8427;52.204;7.202;2024-01-15T02:35:24;4.63;;;1.55;;
16626;SDS011;8427;52.204;7.202;2024-01-15T02:37:52;9.27;;;1.75;;
16626;SDS011;8427;52.204;7.202;2024-01-15T02:40:22;10.00;;;1.33;;
16626;SDS011;8427;52.204;7.202;2024-01-15T02:42:50;8.65;;;1.45;;
16626;SDS011;8427;52.204;7.202;2024-01-15T02:45:19;10.20;;;1.20;;
16626;SDS011;8427;52.204;7.202;2024-01-15T02:47:48;6.78;;;1.33;;
16626;SDS011;8427;52.204;7.202;2024-01-15T02:50:16;9.77;;;1.50;;
16626;SDS011;8427;52.204;7.202;2024-01-15T02:52:44;8.88;;;1.48;;
16626;SDS011;8427;52.204;7.202;2024-01-15T02:55:13;9.60;;;1.30;;
16626;SDS011;8427;52.204;7.202;2024-01-15T02:57:42;9.43;;;1.23;;
16626;SDS011;8427;52.204;7.202;2024-01-15T03:00:11;9.88;;;1.20;;
16626;SDS011;8427;52.204;7.202;2024-01-15T03:02:40;10.00;;;1.30;;
16626;SDS011;8427;52.204;7.202;2024-01-15T03:05:13;7.18;;;1.20;;
16626;SDS011;8427;52.204;7.202;2024-01-15T03:07:42;3.88;;;1.17;;
16626;SDS011;8427;52.204;7.202;2024-01-15T03:10:11;7.43;;;1.20;;
16626;SDS011;8427;52.204;7.202;2024-01-15T03:12:39;8.07;;;1.25;;
16626;SDS011;8427;52.204;7.202;2024-01-15T03:15:09;9.60;;;1.20;;
16626;SDS011;8427;52.204;7.202;2024-01-15T03:17:37;6.53;;;1.13;;
16626;SDS011;8427;52.204;7.202;2024-01-15T03:20:06;8.93;;;1.08;;
16626;SDS011;8427;52.204;7.202;2024-01-15T03:22:36;6.68;;;1.20;;
16626;SDS011;8427;52.204;7.202;2024-01-15T03:25:06;6.10;;;1.60;;
16626;SDS011;8427;52.204;7.202;2024-01-15T03:27:34;3.85;;;1.08;;
16626;SDS011;8427;52.204;7.202;2024-01-15T03:30:03;9.80;;;0.90;;
16626;SDS011;8427;52.204;7.202;2024-01-15T03:35:02;6.00;;;1.00;;
16626;SDS011;8427;52.204;7.202;2024-01-15T03:37:31;6.35;;;0.98;;
16626;SDS011;8427;52.204;7.202;2024-01-15T03:39:59;10.63;;;1.20;;
16626;SDS011;8427;52.204;7.202;2024-01-15T03:42:28;8.80;;;0.77;;
16626;SDS011;8427;52.204;7.202;2024-01-15T03:44:56;10.10;;;1.20;;
16626;SDS011;8427;52.204;7.202;2024-01-15T03:47:25;9.03;;;0.90;;
16626;SDS011;8427;52.204;7.202;2024-01-15T03:49:55;13.73;;;1.42;;
16626;SDS011;8427;52.204;7.202;2024-01-15T03:52:24;6.53;;;0.90;;
16626;SDS011;8427;52.204;7.202;2024-01-15T03:54:52;8.93;;;0.70;;
16626;SDS011;8427;52.204;7.202;2024-01-15T03:57:20;8.35;;;0.90;;
16626;SDS011;8427;52.204;7.202;2024-01-15T03:59:49;6.38;;;1.08;;
16626;SDS011;8427;52.204;7.202;2024-01-15T04:02:17;11.00;;;0.97;;
16626;SDS011;8427;52.204;7.202;2024-01-15T04:04:46;6.20;;;0.93;;
16626;SDS011;8427;52.204;7.202;2024-01-15T04:07:16;7.38;;;0.88;;
16626;SDS011;8427;52.204;7.202;2024-01-15T04:09:47;4.60;;;0.80;;
16626;SDS011;8427;52.204;7.202;2024-01-15T04:12:15;6.30;;;0.90;;
16626;SDS011;8427;52.204;7.202;2024-01-15T04:14:44;11.87;;;1.43;;
16626;SDS011;8427;52.204;7.202;2024-01-15T04:17:12;10.47;;;1.03;;
16626;SDS011;8427;52.204;7.202;2024-01-15T04:19:41;8.30;;;1.20;;
16626;SDS011;8427;52.204;7.202;2024-01-15T04:22:12;6.03;;;0.90;;
16626;SDS011;8427;52.204;7.202;2024-01-15T04:24:41;12.63;;;1.05;;
16626;SDS011;8427;52.204;7.202;2024-01-15T04:27:10;5.68;;;0.93;;
16626;SDS011;8427;52.204;7.202;2024-01-15T04:29:38;15.07;;;1.00;;
16626;SDS011;8427;52.204;7.202;2024-01-15T04:32:07;8.02;;;0.93;;
16626;SDS011;8427;52.204;7.202;2024-01-15T04:34:36;6.07;;;0.80;;
16626;SDS011;8427;52.204;7.202;2024-01-15T04:37:05;39.58;;;11.45;;
16626;SDS011;8427;52.204;7.202;2024-01-15T04:39:33;5.37;;;0.90;;
16626;SDS011;8427;52.204;7.202;2024-01-15T04:42:03;7.32;;;0.88;;
16626;SDS011;8427;52.204;7.202;2024-01-15T04:44:32;7.22;;;0.80;;
16626;SDS011;8427;52.204;7.202;2024-01-15T04:47:00;7.25;;;0.90;;
16626;SDS011;8427;52.204;7.202;2024-01-15T04:49:28;9.07;;;0.90;;
16626;SDS011;8427;52.204;7.202;2024-01-15T04:51:57;6.70;;;1.00;;
16626;SDS011;8427;52.204;7.202;2024-01-15T04:54:25;7.70;;;1.50;;
16626;SDS011;8427;52.204;7.202;2024-01-15T04:56:54;9.27;;;1.03;;
16626;SDS011;8427;52.204;7.202;2024-01-15T04:59:24;11.33;;;1.03;;
16626;SDS011;8427;52.204;7.202;2024-01-15T05:01:52;7.55;;;1.02;;
16626;SDS011;8427;52.204;7.202;2024-01-15T05:04:20;8.07;;;0.93;;
16626;SDS011;8427;52.204;7.202;2024-01-15T05:06:49;7.13;;;1.17;;
16626;SDS011;8427;52.204;7.202;2024-01-15T05:09:17;5.57;;;0.90;;
16626;SDS011;8427;52.204;7.202;2024-01-15T05:11:45;6.15;;;0.80;;
16626;SDS011;8427;52.204;7.202;2024-01-15T05:14:14;9.63;;;1.00;;
16626;SDS011;8427;52.204;7.202;2024-01-15T05:16:47;12.00;;;1.10;;
16626;SDS011;8427;52.204;7.202;2024-01-15T05:19:16;10.68;;;1.13;;
16626;SDS011;8427;52.204;7.202;2024-01-15T05:21:46;6.57;;;1.02;;
16626;SDS011;8427;52.204;7.202;2024-01-15T05:24:15;10.70;;;1.05;;
16626;SDS011;8427;52.204;7.202;2024-01-15T05:26:43;8.87;;;0.97;;
16626;SDS011;8427;52.204;7.202;2024-01-15T05:29:11;6.00;;;0.87;;
16626;SDS011;8427;52.204;7.202;2024-01-15T05:31:40;4.93;;;0.82;;
16626;SDS011;8427;52.204;7.202;2024-01-15T05:34:10;4.97;;;0.73;;
16626;SDS011;8427;52.204;7.202;2024-01-15T05:36:38;10.20;;;0.85;;
16626;SDS011;8427;52.204;7.202;2024-01-15T05:39:07;6.60;;;0.75;;
16626;SDS011;8427;52.204;7.202;2024-01-15T05:41:35;4.40;;;0.80;;
16626;SDS011;8427;52.204;7.202;2024-01-15T05:44:04;5.40;;;0.98;;
16626;SDS011;8427;52.204;7.202;2024-01-15T05:46:32;9.75;;;1.08;;
16626;SDS011;8427;52.204;7.202;2024-01-15T05:49:00;6.03;;;0.95;;
16626;SDS011;8427;52.204;7.202;2024-01-15T05:51:30;7.67;;;1.03;;
16626;SDS011;8427;52.204;7.202;2024-01-15T05:53:59;7.55;;;0.80;;
16626;SDS011;8427;52.204;7.202;2024-01-15T05:56:27;10.45;;;1.17;;
16626;SDS011;8427;52.204;7.202;2024-01-15T05:58:56;8.85;;;0.90;;
16626;SDS011;8427;52.204;7.202;2024-01-15T06:01:24;6.63;;;0.70;;
16626;SDS011;8427;52.204;7.202;2024-01-15T06:03:52;8.45;;;1.00;;
16626;SDS011;8427;52.204;7.202;2024-01-15T06:06:21;4.23;;;0.80;;
16626;SDS011;8427;52.204;7.202;2024-01-15T06:08:51;5.00;;;0.70;;
16626;SDS011;8427;52.204;7.202;2024-01-15T06:11:19;9.65;;;0.98;;
16626;SDS011;8427;52.204;7.202;2024-01-15T06:13:47;10.23;;;1.00;;
16626;SDS011;8427;52.204;7.202;2024-01-15T06:16:16;5.10;;;1.00;;
16626;SDS011;8427;52.204;7.202;2024-01-15T06:18:46;11.15;;;1.00;;
16626;SDS011;8427;52.204;7.202;2024-01-15T06:21:15;8.88;;;0.82;;
16626;SDS011;8427;52.204;7.202;2024-01-15T06:23:44;6.85;;;1.35;;
16626;SDS011;8427;52.204;7.202;2024-01-15T06:26:14;11.73;;;2.90;;
16626;SDS011;8427;52.204;7.202;2024-01-15T06:28:42;8.10;;;1.50;;
16626;SDS011;8427;52.204;7.202;2024-01-15T06:31:11;11.05;;;1.75;;
16626;SDS011;8427;52.204;7.202;2024-01-15T06:33:40;5.05;;;1.20;;
16626;SDS011;8427;52.204;7.202;2024-01-15T06:36:09;9.02;;;2.15;;
16626;SDS011;8427;52.204;7.202;2024-01-15T06:38:38;8.00;;;1.75;;
16626;SDS011;8427;52.204;7.202;2024-01-15T06:41:06;10.65;;;2.10;;
16626;SDS011;8427;52.204;7.202;2024-01-15T06:43:36;3.95;;;1.20;;
16626;SDS011;8427;52.204;7.202;2024-01-15T06:46:04;4.57;;;1.70;;
16626;SDS011;8427;52.204;7.202;2024-01-15T06:48:34;4.70;;;1.20;;
16626;SDS011;8427;52.204;7.202;2024-01-15T06:51:03;5.60;;;1.20;;
16626;SDS011;8427;52.204;7.202;2024-01-15T06:53:32;5.03;;;1.02;;
16626;SDS011;8427;52.204;7.202;2024-01-15T06:56:00;6.80;;;1.40;;
16626;SDS011;8427;52.204;7.202;2024-01-15T06:58:30;4.30;;;1.17;;
16626;SDS011;8427;52.204;7.202;2024-01-15T07:01:00;4.43;;;1.17;;
16626;SDS011;8427;52.204;7.202;2024-01-15T07:03:29;9.80;;;1.40;;
16626;SDS011;8427;52.204;7.202;2024-01-15T07:05:57;3.87;;;1.40;;
16626;SDS011;8427;52.204;7.202;2024-01-15T07:08:26;5.40;;;1.23;;
16626;SDS011;8427;52.204;7.202;2024-01-15T07:10:54;5.97;;;1.30;;
16626;SDS011;8427;52.204;7.202;2024-01-15T07:13:22;3.83;;;1.67;;
16626;SDS011;8427;52.204;7.202;2024-01-15T07:15:50;4.53;;;2.35;;
16626;SDS011;8427;52.204;7.202;2024-01-15T07:18:20;4.95;;;2.03;;
16626;SDS011;8427;52.204;7.202;2024-01-15T07:20:50;5.38;;;2.20;;
16626;SDS011;8427;52.204;7.202;2024-01-15T07:23:18;9.55;;;3.20;;
16626;SDS011;8427;52.204;7.202;2024-01-15T07:25:47;6.68;;;2.30;;
16626;SDS011;8427;52.204;7.202;2024-01-15T07:28:15;7.68;;;2.33;;
16626;SDS011;8427;52.204;7.202;2024-01-15T07:30:43;6.63;;;2.20;;
16626;SDS011;8427;52.204;7.202;2024-01-15T07:33:12;7.47;;;2.63;;
16626;SDS011;8427;52.204;7.202;2024-01-15T07:35:42;9.55;;;2.83;;
16626;SDS011;8427;52.204;7.202;2024-01-15T07:38:10;11.05;;;3.17;;
16626;SDS011;8427;52.204;7.202;2024-01-15T07:40:39;11.37;;;3.63;;
16626;SDS011;8427;52.204;7.202;2024-01-15T07:43:07;12.00;;;3.47;;
16626;SDS011;8427;52.204;7.202;2024-01-15T07:45:35;10.52;;;3.58;;
16626;SDS011;8427;52.204;7.202;2024-01-15T07:48:04;12.02;;;4.82;;
16626;SDS011;8427;52.204;7.202;2024-01-15T07:53:03;8.95;;;2.80;;
16626;SDS011;8427;52.204;7.202;2024-01-15T07:55:31;13.98;;;3.58;;
16626;SDS011;8427;52.204;7.202;2024-01-15T07:57:59;10.43;;;3.30;;
16626;SDS011;8427;52.204;7.202;2024-01-15T08:00:41;8.38;;;3.30;;
16626;SDS011;8427;52.204;7.202;2024-01-15T08:03:10;14.40;;;3.20;;
16626;SDS011;8427;52.204;7.202;2024-01-15T08:05:39;15.43;;;4.50;;
16626;SDS011;8427;52.204;7.202;2024-01-15T08:08:09;12.05;;;4.13;;
16626;SDS011;8427;52.204;7.202;2024-01-15T08:10:37;7.60;;;3.10;;
16626;SDS011;8427;52.204;7.202;2024-01-15T08:13:05;10.93;;;3.53;;
16626;SDS011;8427;52.204;7.202;2024-01-15T08:15:35;10.20;;;3.70;;
16626;SDS011;8427;52.204;7.202;2024-01-15T08:18:04;11.60;;;4.00;;
16626;SDS011;8427;52.204;7.202;2024-01-15T08:20:33;16.30;;;5.28;;
16626;SDS011;8427;52.204;7.202;2024-01-15T08:23:01;11.48;;;4.55;;
16626;SDS011;8427;52.204;7.202;2024-01-15T08:25:31;8.75;;;3.13;;
16626;SDS011;8427;52.204;7.202;2024-01-15T08:27:59;14.57;;;5.20;;
16626;SDS011;8427;52.204;7.202;2024-01-15T08:30:27;8.75;;;4.20;;
16626;SDS011;8427;52.204;7.202;2024-01-15T08:32:56;14.60;;;3.88;;
16626;SDS011;8427;52.204;7.202;2024-01-15T08:35:37;14.25;;;3.92;;
16626;SDS011;8427;52.204;7.202;2024-01-15T08:38:05;24.65;;;5.32;;
16626;SDS011;8427;52.204;7.202;2024-01-15T08:40:35;16.07;;;4.13;;
16626;SDS011;8427;52.204;7.202;2024-01-15T08:43:03;22.48;;;5.05;;
16626;SDS011;8427;52.204;7.202;2024-01-15T08:45:33;19.90;;;4.88;;
16626;SDS011;8427;52.204;7.202;2024-01-15T08:48:02;17.40;;;4.13;;
16626;SDS011;8427;52.204;7.202;2024-01-15T08:50:31;8.82;;;2.55;;
16626;SDS011;8427;52.204;7.202;2024-01-15T08:52:59;8.43;;;2.65;;
16626;SDS011;8427;52.204;7.202;2024-01-15T08:55:28;11.65;;;2.50;;
16626;SDS011;8427;52.204;7.202;2024-01-15T08:57:58;9.02;;;2.50;;
16626;SDS011;8427;52.204;7.202;2024-01-15T09:00:26;8.55;;;2.33;;
16626;SDS011;8427;52.204;7.202;2024-01-15T09:02:55;6.43;;;2.65;;
16626;SDS011;8427;52.204;7.202;2024-01-15T09:05:24;10.02;;;2.67;;
16626;SDS011;8427;52.204;7.202;2024-01-15T09:07:53;7.97;;;2.65;;
16626;SDS011;8427;52.204;7.202;2024-01-15T09:12:50;8.80;;;4.60;;
16626;SDS011;8427;52.204;7.202;2024-01-15T09:15:21;9.43;;;3.17;;
16626;SDS011;8427;52.204;7.202;2024-01-15T09:17:50;8.73;;;3.45;;
16626;SDS011;8427;52.204;7.202;2024-01-15T09:20:18;9.63;;;3.23;;
16626;SDS011;8427;52.204;7.202;2024-01-15T09:22:47;13.73;;;3.20;;
16626;SDS011;8427;52.204;7.202;2024-01-15T09:25:15;6.75;;;2.50;;
16626;SDS011;8427;52.204;7.202;2024-01-15T09:27:44;10.87;;;2.60;;
16626;SDS011;8427;52.204;7.202;2024-01-15T09:30:13;9.30;;;2.65;;
16626;SDS011;8427;52.204;7.202;2024-01-15T09:32:44;7.70;;;2.25;;
16626;SDS011;8427;52.204;7.202;2024-01-15T09:35:12;8.77;;;2.15;;
16626;SDS011;8427;52.204;7.202;2024-01-15T09:37:41;12.07;;;3.77;;
16626;SDS011;8427;52.204;7.202;2024-01-15T09:40:14;18.63;;;11.50;;
16626;SDS011;8427;52.204;7.202;2024-01-15T09:42:43;27.05;;;19.40;;
16626;SDS011;8427;52.204;7.202;2024-01-15T09:45:13;24.70;;;14.00;;
16626;SDS011;8427;52.204;7.202;2024-01-15T09:47:43;10.23;;;3.60;;
16626;SDS011;8427;52.204;7.202;2024-01-15T09:53:03;6.18;;;2.00;;
16626;SDS011;8427;52.204;7.202;2024-01-15T09:55:33;6.00;;;2.28;;
16626;SDS011;8427;52.204;7.202;2024-01-15T09:58:03;3.38;;;1.90;;
16626;SDS011;8427;52.204;7.202;2024-01-15T10:00:33;11.57;;;3.40;;
16626;SDS011;8427;52.204;7.202;2024-01-15T10:03:05;9.50;;;2.30;;
16626;SDS011;8427;52.204;7.202;2024-01-15T10:05:35;4.00;;;1.63;;
16626;SDS011;8427;52.204;7.202;2024-01-15T10:08:03;5.85;;;2.22;;
16626;SDS011;8427;52.204;7.202;2024-01-15T10:10:33;6.75;;;2.45;;
16626;SDS011;8427;52.204;7.202;2024-01-15T10:13:04;7.90;;;2.92;;
16626;SDS011;8427;52.204;7.202;2024-01-15T10:18:05;8.10;;;3.90;;
16626;SDS011;8427;52.204;7.202;2024-01-15T10:20:34;8.82;;;3.58;;
16626;SDS011;8427;52.204;7.202;2024-01-15T10:23:02;6.07;;;2.92;;
16626;SDS011;8427;52.204;7.202;2024-01-15T10:25:31;11.45;;;5.20;;
16626;SDS011;8427;52.204;7.202;2024-01-15T10:28:00;11.60;;;4.10;;
16626;SDS011;8427;52.204;7.202;2024-01-15T10:30:30;17.17;;;6.60;;
16626;SDS011;8427;52.204;7.202;2024-01-15T10:33:01;14.10;;;5.05;;
16626;SDS011;8427;52.204;7.202;2024-01-15T10:35:32;11.18;;;4.53;;
16626;SDS011;8427;52.204;7.202;2024-01-15T10:38:02;15.02;;;5.32;;
16626;SDS011;8427;52.204;7.202;2024-01-15T10:40:31;12.23;;;4.05;;
16626;SDS011;8427;52.204;7.202;2024-01-15T10:47:58;11.63;;;2.70;;
16626;SDS011;8427;52.204;7.202;2024-01-15T10:50:29;8.82;;;2.58;;
16626;SDS011;8427;52.204;7.202;2024-01-15T10:53:03;10.30;;;3.35;;
16626;SDS011;8427;52.204;7.202;2024-01-15T10:55:32;7.38;;;1.92;;
16626;SDS011;8427;52.204;7.202;2024-01-15T10:58:03;8.30;;;2.42;;
16626;SDS011;8427;52.204;7.202;2024-01-15T11:00:31;6.57;;;2.10;;
16626;SDS011;8427;52.204;7.202;2024-01-15T11:03:00;8.97;;;2.43;;
16626;SDS011;8427;52.204;7.202;2024-01-15T11:05:30;8.05;;;2.40;;
16626;SDS011;8427;52.204;7.202;2024-01-15T11:08:01;8.70;;;2.30;;
16626;SDS011;8427;52.204;7.202;2024-01-15T11:10:41;4.90;;;2.50;;
16626;SDS011;8427;52.204;7.202;2024-01-15T11:13:14;7.30;;;2.03;;
16626;SDS011;8427;52.204;7.202;2024-01-15T11:18:28;7.43;;;2.13;;
16626;SDS011;8427;52.204;7.202;2024-01-15T11:21:19;7.53;;;1.92;;
16626;SDS011;8427;52.204;7.202;2024-01-15T11:23:49;11.38;;;4.25;;
16626;SDS011;8427;52.204;7.202;2024-01-15T11:26:28;8.68;;;2.20;;
16626;SDS011;8427;52.204;7.202;2024-01-15T11:28:59;8.30;;;2.25;;
16626;SDS011;8427;52.204;7.202;2024-01-15T11:31:55;6.45;;;1.92;;
16626;SDS011;8427;52.204;7.202;2024-01-15T11:37:26;7.40;;;2.60;;
16626;SDS011;8427;52.204;7.202;2024-01-15T11:39:55;11.75;;;4.15;;
16626;SDS011;8427;52.204;7.202;2024-01-15T11:42:29;7.85;;;2.95;;
16626;SDS011;8427;52.204;7.202;2024-01-15T11:44:58;7.63;;;2.60;;
16626;SDS011;8427;52.204;7.202;2024-01-15T11:47:40;11.95;;;2.60;;
16626;SDS011;8427;52.204;7.202;2024-01-15T11:50:31;7.78;;;3.10;;
16626;SDS011;8427;52.204;7.202;2024-01-15T11:53:01;10.95;;;3.17;;
16626;SDS011;8427;52.204;7.202;2024-01-15T11:55:34;7.43;;;2.58;;
16626;SDS011;8427;52.204;7.202;2024-01-15T11:58:07;6.32;;;2.85;;
16626;SDS011;8427;52.204;7.202;2024-01-15T12:00:39;14.55;;;3.00;;
16626;SDS011;8427;52.204;7.202;2024-01-15T12:03:08;10.75;;;3.10;;
16626;SDS011;8427;52.204;7.202;2024-01-15T12:05:37;11.32;;;2.90;;
16626;SDS011;8427;52.204;7.202;2024-01-15T12:08:06;7.35;;;1.92;;
16626;SDS011;8427;52.204;7.202;2024-01-15T12:10:38;4.65;;;2.10;;
16626;SDS011;8427;52.204;7.202;2024-01-15T12:13:11;6.22;;;2.00;;
16626;SDS011;8427;52.204;7.202;2024-01-15T12:15:41;8.10;;;2.65;;
16626;SDS011;8427;52.204;7.202;2024-01-15T12:18:11;8.07;;;2.67;;
16626;SDS011;8427;52.204;7.202;2024-01-15T12:20:42;7.25;;;3.35;;
16626;SDS011;8427;52.204;7.202;2024-01-15T12:23:13;11.65;;;5.85;;
16626;SDS011;8427;52.204;7.202;2024-01-15T12:25:43;9.75;;;4.20;;
16626;SDS011;8427;52.204;7.202;2024-01-15T12:28:15;8.02;;;2.70;;
16626;SDS011;8427;52.204;7.202;2024-01-15T12:30:45;9.50;;;4.82;;
16626;SDS011;8427;52.204;7.202;2024-01-15T12:33:17;20.10;;;6.60;;
16626;SDS011;8427;52.204;7.202;2024-01-15T12:35:47;24.00;;;7.70;;
16626;SDS011;8427;52.204;7.202;2024-01-15T12:38:18;19.93;;;7.80;;
16626;SDS011;8427;52.204;7.202;2024-01-15T12:40:47;20.20;;;6.53;;
16626;SDS011;8427;52.204;7.202;2024-01-15T12:43:18;17.48;;;5.15;;
16626;SDS011;8427;52.204;7.202;2024-01-15T12:45:47;9.68;;;3.50;;
16626;SDS011;8427;52.204;7.202;2024-01-15T12:48:16;9.20;;;3.00;;
16626;SDS011;8427;52.204;7.202;2024-01-15T12:50:46;10.35;;;3.22;;
16626;SDS011;8427;52.204;7.202;2024-01-15T12:55:44;7.00;;;1.42;;
16626;SDS011;8427;52.204;7.202;2024-01-15T12:58:12;5.30;;;2.30;;
16626;SDS011;8427;52.204;7.202;2024-01-15T13:00:46;14.35;;;4.93;;
16626;SDS011;8427;52.204;7.202;2024-01-15T13:03:15;10.20;;;2.90;;
16626;SDS011;8427;52.204;7.202;2024-01-15T13:05:43;12.68;;;5.38;;
16626;SDS011;8427;52.204;7.202;2024-01-15T13:08:13;8.10;;;2.20;;
16626;SDS011;8427;52.204;7.202;2024-01-15T13:10:41;2.55;;;1.23;;
16626;SDS011;8427;52.204;7.202;2024-01-15T13:13:11;22.95;;;8.02;;
16626;SDS011;8427;52.204;7.202;2024-01-15T13:15:39;9.65;;;2.67;;
16626;SDS011;8427;52.204;7.202;2024-01-15T13:18:11;18.20;;;5.10;;
16626;SDS011;8427;52.204;7.202;2024-01-15T13:20:39;7.95;;;3.00;;
16626;SDS011;8427;52.204;7.202;2024-01-15T13:23:08;16.30;;;3.40;;
16626;SDS011;8427;52.204;7.202;2024-01-15T13:25:36;2.80;;;0.90;;
16626;SDS011;8427;52.204;7.202;2024-01-15T13:28:06;8.65;;;1.55;;
16626;SDS011;8427;52.204;7.202;2024-01-15T13:30:34;6.03;;;1.05;;
16626;SDS011;8427;52.204;7.202;2024-01-15T13:33:04;5.72;;;1.27;;
16626;SDS011;8427;52.204;7.202;2024-01-15T13:35:34;4.00;;;1.00;;
16626;SDS011;8427;52.204;7.202;2024-01-15T13:38:03;3.67;;;0.65;;
16626;SDS011;8427;52.204;7.202;2024-01-15T13:40:32;3.33;;;0.40;;
16626;SDS011;8427;52.204;7.202;2024-01-15T13:43:01;3.10;;;0.45;;
16626;SDS011;8427;52.204;7.202;2024-01-15T13:45:33;4.57;;;0.82;;
16626;SDS011;8427;52.204;7.202;2024-01-15T13:48:04;0.88;;;0.30;;
16626;SDS011;8427;52.204;7.202;2024-01-15T13:50:36;4.07;;;0.60;;
16626;SDS011;8427;52.204;7.202;2024-01-15T13:53:05;1.40;;;0.95;;
16626;SDS011;8427;52.204;7.202;2024-01-15T13:55:36;1.75;;;0.40;;
16626;SDS011;8427;52.204;7.202;2024-01-15T13:58:04;3.10;;;0.50;;
16626;SDS011;8427;52.204;7.202;2024-01-15T14:00:33;2.58;;;0.50;;
16626;SDS011;8427;52.204;7.202;2024-01-15T14:03:02;3.05;;;0.60;;
16626;SDS011;8427;52.204;7.202;2024-01-15T14:05:31;4.03;;;0.73;;
16626;SDS011;8427;52.204;7.202;2024-01-15T14:08:02;4.53;;;2.00;;
16626;SDS011;8427;52.204;7.202;2024-01-15T14:10:31;7.45;;;3.15;;
16626;SDS011;8427;52.204;7.202;2024-01-15T14:13:00;7.43;;;2.42;;
16626;SDS011;8427;52.204;7.202;2024-01-15T14:15:28;3.53;;;1.80;;
16626;SDS011;8427;52.204;7.202;2024-01-15T14:17:57;8.18;;;3.67;;
16626;SDS011;8427;52.204;7.202;2024-01-15T14:20:26;5.40;;;1.98;;
16626;SDS011;8427;52.204;7.202;2024-01-15T14:22:55;5.95;;;1.60;;
16626;SDS011;8427;52.204;7.202;2024-01-15T14:25:24;4.27;;;1.73;;
16626;SDS011;8427;52.204;7.202;2024-01-15T14:27:53;9.50;;;1.88;;
16626;SDS011;8427;52.204;7.202;2024-01-15T14:30:21;4.73;;;1.30;;
16626;SDS011;8427;52.204;7.202;2024-01-15T14:35:26;6.20;;;1.88;;
16626;SDS011;8427;52.204;7.202;2024-01-15T14:37:55;6.22;;;1.67;;
16626;SDS011;8427;52.204;7.202;2024-01-15T14:40:26;5.60;;;1.55;;
16626;SDS011;8427;52.204;7.202;2024-01-15T14:42:56;7.35;;;2.80;;
16626;SDS011;8427;52.204;7.202;2024-01-15T14:45:24;7.32;;;2.22;;
16626;SDS011;8427;52.204;7.202;2024-01-15T14:47:54;5.18;;;2.50;;
16626;SDS011;8427;52.204;7.202;2024-01-15T14:50:24;4.90;;;1.70;;
16626;SDS011;8427;52.204;7.202;2024-01-15T14:52:52;7.20;;;1.70;;
16626;SDS011;8427;52.204;7.202;2024-01-15T14:55:21;5.22;;;1.95;;
16626;SDS011;8427;52.204;7.202;2024-01-15T15:00:21;4.68;;;2.00;;
16626;SDS011;8427;52.204;7.202;2024-01-15T15:02:50;6.47;;;2.17;;
16626;SDS011;8427;52.204;7.202;2024-01-15T15:05:18;7.00;;;3.10;;
16626;SDS011;8427;52.204;7.202;2024-01-15T15:07:47;4.75;;;1.80;;
16626;SDS011;8427;52.204;7.202;2024-01-15T15:10:16;5.20;;;1.70;;
16626;SDS011;8427;52.204;7.202;2024-01-15T15:12:44;6.78;;;2.10;;
16626;SDS011;8427;52.204;7.202;2024-01-15T15:15:14;6.47;;;1.97;;
16626;SDS011;8427;52.204;7.202;2024-01-15T15:17:48;6.57;;;1.60;;
16626;SDS011;8427;52.204;7.202;2024-01-15T15:20:17;8.80;;;1.40;;
16626;SDS011;8427;52.204;7.202;2024-01-15T15:22:45;6.80;;;1.98;;
16626;SDS011;8427;52.204;7.202;2024-01-15T15:25:14;6.00;;;1.83;;
16626;SDS011;8427;52.204;7.202;2024-01-15T15:27:42;6.53;;;1.67;;
16626;SDS011;8427;52.204;7.202;2024-01-15T15:30:11;6.97;;;1.42;;
16626;SDS011;8427;52.204;7.202;2024-01-15T15:32:41;7.35;;;1.73;;
16626;SDS011;8427;52.204;7.202;2024-01-15T15:35:10;9.50;;;1.60;;
16626;SDS011;8427;52.204;7.202;2024-01-15T15:37:39;12.13;;;2.22;;
16626;SDS011;8427;52.204;7.202;2024-01-15T15:40:08;16.13;;;4.03;;
16626;SDS011;8427;52.204;7.202;2024-01-15T15:42:38;9.70;;;2.42;;
16626;SDS011;8427;52.204;7.202;2024-01-15T15:45:07;9.57;;;2.03;;